Time;durP1;ratioP1;P1;durP2;ratioP2;P2;SDS_P1;SDS_P2;PMS_P1;PMS_P2;Temp;Humidity;BMP_temperature;BMP_pressure;BME280_temperature;BME280_humidity;BME280_pressure;Samples;Min_cycle;Max_cycle;Signal;HPM_P1;HPM_P2
2023/08/13 04:02:39;;;;;;;0.60;0.10;;;21.50;1.00;;;;;;4931469;29;21063;-68
2023/08/13 04:05:08;;;;;;;0.60;0.10;;;21.50;1.00;;;;;;4933269;29;20453;-68
2023/08/13 04:07:36;;;;;;;0.60;0.10;;;21.60;1.00;;;;;;4934090;29;20888;-68
2023/08/13 04:10:04;;;;;;;0.60;0.20;;;21.60;1.00;;;;;;4934239;29;20537;-69
2023/08/13 04:12:32;;;;;;;0.60;0.10;;;21.60;1.00;;;;;;4934087;29;20557;-70
2023/08/13 04:15:00;;;;;;;0.60;0.20;;;;;;;;;;4971823;23;20504;-67
2023/08/13 04:17:29;;;;;;;0.80;0.80;;;;;;;;;;4964161;28;20492;-68
2023/08/13 04:19:58;;;;;;;3.80;3.60;;;21.60;1.00;;;;;;4971332;28;20448;-68
2023/08/13 04:22:26;;;;;;;0.60;0.10;;;21.60;1.00;;;;;;4971617;28;20439;-67
2023/08/13 04:24:55;;;;;;;0.80;0.20;;;;;;;;;;4973827;28;20459;-67
2023/08/13 04:27:23;;;;;;;0.60;0.10;;;;;;;;;;4991736;28;20534;-67
2023/08/13 04:29:51;;;;;;;0.60;0.10;;;21.90;1.00;;;;;;4991487;28;20470;-67
2023/08/13 04:32:19;;;;;;;0.60;0.10;;;;;;;;;;4991493;28;20449;-67
2023/08/13 04:34:47;;;;;;;0.60;0.10;;;22.10;1.00;;;;;;4990864;28;20491;-67
2023/08/13 04:37:16;;;;;;;0.60;0.10;;;22.20;1.00;;;;;;4991659;28;20484;-67
2023/08/13 04:39:45;;;;;;;1.47;1.37;;;;;;;;;;4991392;28;20475;-67
2023/08/13 04:42:13;;;;;;;0.60;0.10;;;;;;;;;;4991384;28;20450;-67
2023/08/13 04:44:41;;;;;;;0.60;0.10;;;;;;;;;;4988891;28;20461;-67
2023/08/13 04:47:10;;;;;;;0.60;0.20;;;21.70;99.90;;;;;;4972227;28;20507;-67
2023/08/13 04:49:38;;;;;;;0.60;0.10;;;21.70;99.90;;;;;;4976266;28;21190;-67
2023/08/13 04:52:06;;;;;;;0.60;0.10;;;;;;;;;;4982040;28;20463;-67
2023/08/13 04:54:35;;;;;;;0.60;0.20;;;;;;;;;;4995515;28;20872;-67
2023/08/13 04:57:03;;;;;;;0.60;0.10;;;;;;;;;;4994817;28;20471;-68
2023/08/13 04:59:31;;;;;;;0.60;0.20;;;21.60;99.90;;;;;;4995071;28;20785;-68
2023/08/13 05:01:59;;;;;;;0.60;0.10;;;21.70;99.90;;;;;;4995072;28;20447;-68
2023/08/13 05:04:27;;;;;;;0.60;0.10;;;;;;;;;;4995135;28;20450;-67
2023/08/13 05:06:55;;;;;;;0.60;0.10;;;21.80;99.90;;;;;;4994494;28;20878;-67
2023/08/13 05:09:23;;;;;;;0.60;0.13;;;21.80;99.90;;;;;;4994986;28;20475;-68
2023/08/13 05:11:52;;;;;;;0.60;0.10;;;21.90;99.90;;;;;;4992231;28;20494;-67
2023/08/13 05:14:21;;;;;;;0.60;0.10;;;21.90;99.90;;;;;;4989674;28;20458;-67
2023/08/13 05:16:48;;;;;;;0.60;0.20;;;21.80;99.90;;;;;;4974941;28;20566;-68
2023/08/13 05:19:16;;;;;;;0.60;0.10;;;;;;;;;;4977508;28;20492;-68
2023/08/13 05:21:45;;;;;;;0.60;0.10;;;;;;;;;;4992691;28;20455;-68
2023/08/13 05:24:13;;;;;;;0.60;0.20;;;;;;;;;;4986390;28;20952;-68
2023/08/13 05:26:41;;;;;;;0.60;0.10;;;22.00;99.90;;;;;;4994509;28;20485;-68
2023/08/13 05:29:10;;;;;;;0.60;0.20;;;22.00;99.90;;;;;;4994495;28;20539;-68
2023/08/13 05:31:38;;;;;;;0.60;0.10;;;22.10;99.90;;;;;;4994267;28;20452;-68
2023/08/13 05:34:06;;;;;;;0.60;0.10;;;22.10;99.90;;;;;;4994066;28;20448;-68
2023/08/13 05:36:34;;;;;;;0.60;0.10;;;;;;;;;;4994297;28;20464;-68
2023/08/13 05:39:04;;;;;;;0.60;0.10;;;22.20;99.90;;;;;;4994244;28;20487;-68
2023/08/13 05:41:32;;;;;;;0.60;0.10;;;;;;;;;;4994517;28;20447;-68
2023/08/13 05:44:00;;;;;;;0.60;0.10;;;22.20;99.90;;;;;;4994140;28;20954;-68
2023/08/13 05:46:29;;;;;;;0.60;0.20;;;22.20;99.90;;;;;;4994319;28;20477;-68
2023/08/13 05:48:58;;;;;;;0.60;0.10;;;22.30;99.90;;;;;;4994142;28;20953;-68
2023/08/13 05:51:26;;;;;;;0.60;0.10;;;22.20;99.90;;;;;;4994455;28;20480;-68
2023/08/13 05:53:54;;;;;;;0.60;0.10;;;22.20;99.90;;;;;;4994903;28;20456;-68
2023/08/13 05:56:22;;;;;;;0.60;0.10;;;22.20;99.90;;;;;;4994973;28;20495;-68
2023/08/13 05:58:50;;;;;;;0.60;0.20;;;;;;;;;;4994189;28;20609;-68
2023/08/13 06:01:18;;;;;;;0.60;0.10;;;;;;;;;;4994502;28;20462;-68
2023/08/13 06:03:47;;;;;;;0.60;0.10;;;22.00;99.90;;;;;;4994118;28;20467;-67
2023/08/13 06:06:16;;;;;;;0.60;0.13;;;;;;;;;;4994176;28;20470;-67
2023/08/13 06:08:44;;;;;;;0.60;0.10;;;;;;;;;;4995025;28;20474;-67
2023/08/13 06:11:12;;;;;;;0.60;0.10;;;22.10;99.90;;;;;;4987777;28;20522;-69
2023/08/13 06:13:40;;;;;;;0.60;0.10;;;22.10;99.90;;;;;;4985364;28;20476;-68
2023/08/13 06:16:08;;;;;;;0.60;0.13;;;22.10;99.90;;;;;;4989295;28;20468;-67
2023/08/13 06:18:36;;;;;;;0.60;0.20;;;22.20;99.90;;;;;;4988690;28;20484;-67
2023/08/13 06:21:05;;;;;;;0.60;0.10;;;22.20;99.90;;;;;;4982028;28;20445;-69
2023/08/13 06:23:33;;;;;;;0.60;0.10;;;22.20;99.90;;;;;;4993249;28;20526;-68
2023/08/13 06:26:01;;;;;;;0.60;0.10;;;22.20;99.90;;;;;;4977090;28;20465;-67
2023/08/13 06:28:29;;;;;;;0.77;0.77;;;;;;;;;;4983829;28;20436;-67
2023/08/13 06:30:57;;;;;;;0.60;0.10;;;22.30;99.90;;;;;;4984223;28;20479;-67
2023/08/13 06:33:25;;;;;;;0.60;0.10;;;22.30;99.90;;;;;;4973930;28;20449;-68
2023/08/13 06:35:53;;;;;;;0.60;0.10;;;;;;;;;;4973680;28;20465;-68
2023/08/13 06:38:23;;;;;;;0.60;0.10;;;22.30;99.90;;;;;;4974083;28;20488;-68
2023/08/13 06:40:51;;;;;;;0.60;0.10;;;22.30;99.90;;;;;;4981572;28;20484;-67
2023/08/13 06:43:20;;;;;;;0.60;0.10;;;;;;;;;;4982520;28;20465;-67
2023/08/13 06:45:47;;;;;;;0.60;0.10;;;22.40;99.90;;;;;;4979407;28;20562;-67
2023/08/13 06:48:15;;;;;;;0.60;0.10;;;;;;;;;;4986046;28;20481;-67
2023/08/13 06:50:43;;;;;;;0.60;0.10;;;22.30;99.90;;;;;;4973305;28;20452;-68
2023/08/13 06:53:11;;;;;;;0.60;0.10;;;;;;;;;;4973896;28;20881;-68
2023/08/13 06:55:41;;;;;;;2.87;1.37;;;22.50;99.90;;;;;;4973225;28;21001;-68
2023/08/13 06:58:09;;;;;;;0.60;0.10;;;22.40;99.90;;;;;;4981107;28;21603;-68
2023/08/13 07:00:37;;;;;;;0.60;0.10;;;22.50;99.90;;;;;;4993012;28;20820;-68
2023/08/13 07:03:07;;;;;;;0.60;0.10;;;22.60;99.90;;;;;;4993168;28;20454;-68
2023/08/13 07:05:37;;;;;;;0.60;0.20;;;22.60;99.90;;;;;;4992302;28;21035;-68
2023/08/13 07:08:05;;;;;;;0.60;0.10;;;22.70;99.90;;;;;;4992621;28;20495;-68
2023/08/13 07:10:33;;;;;;;0.60;0.30;;;22.70;99.90;;;;;;4992060;28;20977;-68
2023/08/13 07:13:03;;;;;;;0.60;0.10;;;22.70;99.90;;;;;;4987049;28;20549;-68
2023/08/13 07:15:31;;;;;;;1.00;0.57;;;22.60;99.90;;;;;;4982384;28;20905;-68
2023/08/13 07:17:58;;;;;;;0.60;0.20;;;22.60;99.90;;;;;;4992201;28;20574;-68
2023/08/13 07:20:27;;;;;;;0.60;0.17;;;;;;;;;;4993759;28;21070;-68
2023/08/13 07:22:58;;;;;;;0.60;0.10;;;22.70;99.90;;;;;;4995449;28;20486;-68
2023/08/13 07:25:26;;;;;;;0.80;0.20;;;22.70;99.90;;;;;;4996264;28;21138;-67
2023/08/13 07:27:54;;;;;;;0.60;0.13;;;22.80;99.90;;;;;;4995554;28;20456;-67
2023/08/13 07:30:24;;;;;;;0.60;0.10;;;22.90;99.90;;;;;;4995155;28;20551;-67
2023/08/13 07:32:52;;;;;;;0.60;0.20;;;23.00;99.90;;;;;;4994464;28;20479;-68
2023/08/13 07:35:19;;;;;;;0.60;0.10;;;23.10;99.90;;;;;;4993589;28;20495;-67
2023/08/13 07:37:48;;;;;;;0.60;0.10;;;;;;;;;;4994468;28;20539;-66
2023/08/13 07:40:16;;;;;;;0.60;0.20;;;;;;;;;;4993525;28;20469;-67
2023/08/13 07:42:44;;;;;;;0.60;0.10;;;22.90;99.90;;;;;;4992236;28;20534;-67
2023/08/13 07:45:13;;;;;;;0.80;0.63;;;;;;;;;;4991976;28;20974;-67
2023/08/13 07:47:42;;;;;;;0.60;0.10;;;22.80;99.90;;;;;;4988405;28;20496;-67
2023/08/13 07:50:10;;;;;;;0.60;0.20;;;22.70;99.90;;;;;;4988265;28;20452;-67
2023/08/13 07:52:38;;;;;;;0.60;0.20;;;22.80;99.90;;;;;;4983651;28;20533;-69
2023/08/13 07:55:07;;;;;;;0.60;0.33;;;22.90;99.90;;;;;;4992139;28;20523;-71
2023/08/13 07:57:35;;;;;;;0.60;0.10;;;23.00;99.90;;;;;;4991653;28;20856;-70
2023/08/13 08:00:05;;;;;;;0.60;0.20;;;23.10;99.90;;;;;;4983354;28;20539;-69
2023/08/13 08:02:33;;;;;;;0.90;0.70;;;;;;;;;;4986051;28;20499;-69
2023/08/13 08:05:05;;;;;;;1.07;0.20;;;22.90;99.90;;;;;;4986113;28;20442;-68
2023/08/13 08:07:34;;;;;;;0.60;0.20;;;;;;;;;;4991144;28;20452;-69
2023/08/13 08:10:02;;;;;;;0.90;0.40;;;22.90;99.90;;;;;;4972625;28;20469;-66
2023/08/13 08:12:30;;;;;;;0.60;0.20;;;23.00;99.90;;;;;;4972173;28;20544;-66
2023/08/13 08:14:58;;;;;;;1.13;0.20;;;23.20;99.90;;;;;;4984901;28;20952;-66
2023/08/13 08:17:26;;;;;;;0.60;0.20;;;;;;;;;;4987998;28;20454;-66
2023/08/13 08:19:54;;;;;;;0.90;0.77;;;;;;;;;;4972835;28;20568;-66
2023/08/13 08:22:23;;;;;;;0.60;0.20;;;23.40;99.90;;;;;;4986512;28;20463;-66
2023/08/13 08:24:51;;;;;;;0.60;0.13;;;23.50;99.90;;;;;;4994246;28;20467;-66
2023/08/13 08:27:19;;;;;;;0.70;0.37;;;23.60;99.90;;;;;;4990447;28;20465;-66
2023/08/13 08:29:47;;;;;;;0.60;0.10;;;23.70;99.90;;;;;;4983560;28;20536;-66
2023/08/13 08:32:15;;;;;;;0.70;0.33;;;23.70;99.90;;;;;;4987582;28;20944;-67
2023/08/13 08:34:43;;;;;;;0.90;0.70;;;23.70;99.90;;;;;;4993541;28;20445;-67
2023/08/13 08:37:13;;;;;;;0.60;0.10;;;23.60;99.90;;;;;;4980164;28;20442;-67
2023/08/13 08:39:43;;;;;;;0.60;0.20;;;23.70;99.90;;;;;;4975480;28;20513;-69
2023/08/13 08:42:12;;;;;;;0.60;0.10;;;23.70;99.90;;;;;;4975913;28;20476;-66
2023/08/13 08:44:43;;;;;;;0.70;0.30;;;23.60;99.90;;;;;;4991399;28;20506;-67
2023/08/13 08:47:11;;;;;;;0.60;0.10;;;23.60;99.90;;;;;;4994798;28;20460;-67
2023/08/13 08:49:40;;;;;;;0.70;0.33;;;23.40;99.90;;;;;;4994817;28;21034;-65
2023/08/13 08:52:08;;;;;;;0.80;0.40;;;23.40;99.90;;;;;;4995068;28;20809;-67
2023/08/13 08:54:39;;;;;;;0.60;0.20;;;23.40;99.90;;;;;;4994339;28;20551;-66
2023/08/13 08:57:08;;;;;;;0.60;0.10;;;23.50;99.90;;;;;;4994900;28;20476;-68
2023/08/13 08:59:36;;;;;;;0.60;0.10;;;23.60;99.90;;;;;;4993372;28;20576;-66
2023/08/13 09:02:04;;;;;;;0.60;0.10;;;23.70;99.90;;;;;;4993163;28;20539;-65
2023/08/13 09:04:32;;;;;;;0.60;0.10;;;23.90;99.90;;;;;;4989003;28;20472;-67
2023/08/13 09:07:02;;;;;;;0.60;0.10;;;24.10;99.90;;;;;;4986457;28;20457;-65
2023/08/13 09:09:31;;;;;;;0.60;0.10;;;24.20;99.90;;;;;;4975405;28;20452;-66
2023/08/13 09:12:00;;;;;;;0.60;0.20;;;;;;;;;;4980944;28;20535;-66
2023/08/13 09:14:29;;;;;;;0.60;0.20;;;24.20;99.90;;;;;;4987691;28;20844;-66
2023/08/13 09:16:57;;;;;;;0.60;0.20;;;24.20;99.90;;;;;;4986668;28;20928;-67
2023/08/13 09:19:27;;;;;;;2.20;1.33;;;24.20;99.90;;;;;;4985630;28;20486;-68
2023/08/13 09:21:56;;;;;;;0.70;0.30;;;24.20;99.90;;;;;;4990033;28;20451;-66
2023/08/13 09:24:34;;;;;;;5.90;3.30;;;24.10;99.90;;;;;;4990740;28;20835;-66
2023/08/13 09:27:03;;;;;;;0.80;0.50;;;24.00;99.90;;;;;;4987928;28;21031;-65
2023/08/13 09:29:33;;;;;;;0.70;0.10;;;24.00;99.90;;;;;;4989735;28;20853;-66
2023/08/13 09:32:02;;;;;;;5.00;0.70;;;24.00;99.90;;;;;;4977600;28;20500;-66
2023/08/13 09:34:33;;;;;;;0.80;0.73;;;24.00;99.90;;;;;;4987326;28;20458;-67
2023/08/13 09:37:01;;;;;;;0.60;0.10;;;24.00;99.90;;;;;;4974898;28;20469;-67
2023/08/13 09:39:30;;;;;;;1.87;0.27;;;24.00;99.90;;;;;;4975145;28;20814;-66
2023/08/13 09:42:00;;;;;;;0.60;0.10;;;24.00;99.90;;;;;;4977263;28;20485;-67
2023/08/13 09:44:30;;;;;;;0.70;0.40;;;24.10;99.90;;;;;;4992558;28;20453;-65
2023/08/13 09:47:01;;;;;;;0.60;0.10;;;24.20;99.90;;;;;;4981613;28;20468;-65
2023/08/13 09:49:30;;;;;;;0.60;0.10;;;24.20;99.90;;;;;;4995456;28;21397;-66
2023/08/13 09:52:01;;;;;;;0.60;0.20;;;24.30;99.90;;;;;;4995596;28;20433;-66
2023/08/13 09:54:35;;;;;;;0.60;0.20;;;24.30;99.90;;;;;;4995796;28;20511;-66
2023/08/13 09:57:04;;;;;;;0.70;0.20;;;24.30;99.90;;;;;;4995318;28;21246;-65
2023/08/13 09:59:34;;;;;;;0.60;0.10;;;24.30;99.90;;;;;;4994954;28;20487;-64
2023/08/13 10:02:07;;;;;;;0.70;0.20;;;24.50;99.90;;;;;;4994281;28;20512;-66
2023/08/13 10:04:40;;;;;;;0.70;0.20;;;24.60;99.90;;;;;;4978606;28;20456;-65
2023/08/13 10:07:09;;;;;;;1.47;0.30;;;24.60;99.90;;;;;;4994033;28;20836;-65
2023/08/13 10:09:38;;;;;;;0.70;0.20;;;24.60;99.90;;;;;;4993907;28;20483;-65
2023/08/13 10:12:09;;;;;;;0.70;0.20;;;24.70;99.90;;;;;;4988450;28;20448;-66
2023/08/13 10:14:38;;;;;;;3.07;0.83;;;;;;;;;;4992728;28;20524;-66
2023/08/13 10:17:07;;;;;;;1.10;0.40;;;24.60;99.90;;;;;;4984790;28;20481;-66
2023/08/13 10:19:39;;;;;;;0.80;0.53;;;24.30;99.90;;;;;;4984626;28;21040;-67
2023/08/13 10:22:09;;;;;;;0.60;0.10;;;24.40;99.90;;;;;;4978232;28;20481;-66
2023/08/13 10:24:37;;;;;;;0.70;0.10;;;24.40;99.90;;;;;;4992531;28;20488;-66
2023/08/13 10:27:05;;;;;;;0.70;0.20;;;24.60;99.90;;;;;;4986336;28;20465;-65
2023/08/13 10:29:37;;;;;;;0.60;0.10;;;24.70;99.90;;;;;;4984258;28;20451;-65
2023/08/13 10:32:14;;;;;;;0.67;0.13;;;24.80;99.90;;;;;;4978534;28;20444;-67
2023/08/13 10:34:47;;;;;;;1.10;0.80;;;24.90;99.90;;;;;;4991597;28;20479;-66
2023/08/13 10:37:17;;;;;;;0.67;0.10;;;24.80;99.90;;;;;;4985631;28;20484;-66
2023/08/13 10:39:45;;;;;;;0.80;0.70;;;24.80;99.90;;;;;;4985590;28;20527;-67
2023/08/13 10:42:50;;;;;;;1.00;0.43;;;24.80;99.90;;;;;;4976883;28;20483;-66
2023/08/13 10:45:20;;;;;;;0.70;0.10;;;24.80;99.90;;;;;;4980771;28;20468;-65
2023/08/13 10:47:54;;;;;;;0.70;0.10;;;24.90;99.90;;;;;;4993160;28;20806;-64
2023/08/13 10:50:28;;;;;;;0.70;0.20;;;24.90;99.90;;;;;;4976498;28;20445;-65
2023/08/13 10:53:05;;;;;;;0.70;0.10;;;24.90;99.90;;;;;;4987248;28;20452;-65
2023/08/13 10:55:36;;;;;;;0.70;0.10;;;25.00;99.90;;;;;;4984705;28;21032;-66
2023/08/13 10:58:04;;;;;;;0.70;0.10;;;25.10;99.90;;;;;;4980464;28;20461;-66
2023/08/13 11:00:41;;;;;;;0.70;0.20;;;25.10;99.90;;;;;;4988707;28;20547;-66
2023/08/13 11:03:24;;;;;;;0.70;0.10;;;25.10;99.90;;;;;;4979590;28;20445;-67
2023/08/13 11:05:52;;;;;;;0.70;0.20;;;25.20;99.90;;;;;;4988589;28;21245;-66
2023/08/13 11:08:22;;;;;;;0.70;0.10;;;25.20;99.90;;;;;;4979211;28;20444;-68
2023/08/13 11:11:08;;;;;;;0.70;0.20;;;25.10;99.90;;;;;;4992304;28;20853;-67
2023/08/13 11:13:37;;;;;;;0.70;0.20;;;24.90;99.90;;;;;;4992803;28;20449;-65
2023/08/13 11:16:05;;;;;;;1.03;0.57;;;25.00;99.90;;;;;;4981180;28;20596;-65
2023/08/13 11:18:34;;;;;;;2.70;1.73;;;24.90;99.90;;;;;;4973870;28;20449;-66
2023/08/13 11:21:02;;;;;;;0.70;0.10;;;24.80;99.90;;;;;;4973810;28;21215;-66
2023/08/13 11:23:30;;;;;;;0.70;0.20;;;24.50;99.90;;;;;;4992183;28;20443;-65
2023/08/13 11:25:59;;;;;;;0.70;0.20;;;;;;;;;;4989739;28;20473;-67
2023/08/13 11:28:29;;;;;;;0.70;0.10;;;24.60;99.90;;;;;;4974132;28;20445;-68
2023/08/13 11:30:57;;;;;;;1.37;0.93;;;24.60;99.90;;;;;;4990942;28;20485;-67
2023/08/13 11:33:26;;;;;;;0.70;0.10;;;24.70;99.90;;;;;;4984212;28;20472;-69
2023/08/13 11:35:57;;;;;;;1.10;0.57;;;24.70;99.90;;;;;;4981304;28;20950;-68
2023/08/13 11:38:26;;;;;;;0.70;0.20;;;;;;;;;;4986853;28;20483;-68
2023/08/13 11:40:55;;;;;;;0.97;0.87;;;24.80;99.90;;;;;;4984490;28;20453;-68
2023/08/13 11:43:23;;;;;;;0.73;0.40;;;24.80;99.90;;;;;;4972625;28;20443;-67
2023/08/13 11:45:52;;;;;;;0.80;0.27;;;24.70;99.90;;;;;;4982518;28;20556;-67
2023/08/13 11:48:21;;;;;;;1.10;0.90;;;24.60;99.90;;;;;;4986458;28;20845;-65
2023/08/13 11:50:53;;;;;;;2.17;1.27;;;24.50;99.90;;;;;;4979192;28;20550;-65
2023/08/13 11:53:43;;;;;;;0.70;0.10;;;24.60;99.90;;;;;;4985069;28;20559;-65
2023/08/13 11:56:11;;;;;;;0.60;0.10;;;24.70;99.90;;;;;;4990457;28;21067;-66
2023/08/13 11:58:41;;;;;;;0.80;0.40;;;24.80;99.90;;;;;;4972441;28;20508;-67
2023/08/13 12:01:14;;;;;;;1.10;0.70;;;24.80;99.90;;;;;;4971142;28;20449;-66
2023/08/13 12:03:44;;;;;;;0.70;0.10;;;24.80;99.90;;;;;;4987425;28;20961;-66
2023/08/13 12:06:12;;;;;;;1.63;0.67;;;24.90;99.90;;;;;;4987101;28;20562;-66
2023/08/13 12:08:46;;;;;;;0.70;0.23;;;24.80;99.90;;;;;;4992466;28;20528;-66
2023/08/13 12:11:15;;;;;;;1.13;0.60;;;23.90;99.90;;;;;;4992449;28;20444;-66
2023/08/13 12:13:45;;;;;;;1.30;0.80;;;24.90;99.90;;;;;;4989704;28;20571;-65
2023/08/13 12:16:13;;;;;;;0.80;0.63;;;25.00;99.90;;;;;;4990754;28;20469;-66
2023/08/13 12:18:41;;;;;;;0.70;0.20;;;;;;;;;;4983772;28;20495;-66
2023/08/13 12:21:10;;;;;;;0.70;0.13;;;;;;;;;;4992604;28;20445;-66
2023/08/13 12:23:37;;;;;;;1.00;0.40;;;25.20;89.50;;;;;;4990001;28;20503;-66
2023/08/13 12:26:07;;;;;;;2.20;1.03;;;25.20;91.70;;;;;;4972378;28;20577;-65
2023/08/13 12:28:37;;;;;;;0.70;0.10;;;;;;;;;;4978731;28;20475;-65
2023/08/13 12:31:05;;;;;;;0.80;0.30;;;25.50;90.50;;;;;;4980418;28;20473;-65
2023/08/13 12:33:33;;;;;;;0.70;0.20;;;25.60;82.80;;;;;;4986929;28;20457;-65
2023/08/13 12:36:01;;;;;;;2.13;0.40;;;25.70;74.70;;;;;;4991323;28;20469;-65
2023/08/13 12:38:29;;;;;;;0.70;0.20;;;;;;;;;;4991783;28;20444;-66
2023/08/13 12:40:57;;;;;;;1.20;0.57;;;25.70;53.50;;;;;;4991489;28;20444;-66
2023/08/13 12:43:26;;;;;;;0.70;0.10;;;25.70;55.50;;;;;;4985654;28;20485;-66
2023/08/13 12:45:53;;;;;;;0.70;0.10;;;25.70;52.70;;;;;;4971488;28;20469;-65
2023/08/13 12:48:21;;;;;;;0.70;0.10;;;25.80;54.90;;;;;;4977666;28;20445;-65
2023/08/13 12:50:49;;;;;;;0.70;0.20;;;25.80;50.20;;;;;;4987794;28;20441;-65
2023/08/13 12:53:17;;;;;;;1.53;0.63;;;;;;;;;;4991702;28;20544;-65
2023/08/13 12:55:45;;;;;;;0.70;0.20;;;25.60;39.10;;;;;;4990877;28;20471;-65
2023/08/13 12:58:13;;;;;;;1.53;0.73;;;25.70;40.90;;;;;;4993246;28;20487;-66
2023/08/13 13:00:43;;;;;;;0.70;0.20;;;25.80;44.30;;;;;;4994969;28;20544;-66
2023/08/13 13:03:11;;;;;;;1.83;0.67;;;25.80;33.00;;;;;;4993794;28;20485;-66
2023/08/13 13:05:39;;;;;;;0.80;0.30;;;25.80;41.30;;;;;;4993937;28;20465;-65
2023/08/13 13:08:07;;;;;;;0.80;0.23;;;26.00;40.60;;;;;;4993351;28;20445;-66
2023/08/13 13:10:35;;;;;;;0.70;0.33;;;;;;;;;;4981861;28;20493;-65
2023/08/13 13:13:03;;;;;;;1.17;0.47;;;26.30;33.50;;;;;;4983625;28;20473;-66
2023/08/13 13:15:31;;;;;;;0.80;0.23;;;26.30;28.80;;;;;;4980533;28;20524;-67
2023/08/13 13:18:00;;;;;;;0.70;0.20;;;26.30;26.60;;;;;;4979739;28;20454;-67
2023/08/13 13:20:29;;;;;;;0.80;0.47;;;;;;;;;;4982659;28;20883;-65
2023/08/13 13:22:57;;;;;;;0.70;0.10;;;;;;;;;;4994814;28;20587;-67
2023/08/13 13:25:25;;;;;;;0.90;0.20;;;;;;;;;;4988838;28;20901;-66
2023/08/13 13:27:53;;;;;;;0.70;0.10;;;26.30;24.10;;;;;;4984609;28;20547;-66
2023/08/13 13:30:22;;;;;;;0.70;0.20;;;;;;;;;;4986728;28;20887;-67
2023/08/13 13:32:50;;;;;;;0.70;0.10;;;26.40;19.30;;;;;;4995749;28;20449;-67
2023/08/13 13:35:19;;;;;;;1.57;1.10;;;26.30;16.50;;;;;;4995218;28;20515;-65
2023/08/13 13:37:48;;;;;;;16.93;1.87;;;;;;;;;;4981667;28;20881;-66
2023/08/13 13:40:16;;;;;;;0.70;0.17;;;25.80;18.20;;;;;;4985030;28;20533;-66
2023/08/13 13:42:44;;;;;;;0.70;0.20;;;;;;;;;;4975954;28;20593;-66
2023/08/13 13:45:12;;;;;;;1.27;0.87;;;26.00;17.60;;;;;;4995459;28;21008;-66
2023/08/13 13:47:40;;;;;;;0.70;0.10;;;26.10;17.30;;;;;;4995555;28;20476;-67
2023/08/13 13:50:08;;;;;;;0.70;0.20;;;;;;;;;;4994204;28;20445;-67
2023/08/13 13:52:37;;;;;;;0.70;0.10;;;26.30;16.60;;;;;;4983960;28;20450;-67
2023/08/13 13:55:07;;;;;;;0.70;0.30;;;26.30;14.50;;;;;;4989660;28;20472;-65
2023/08/13 13:57:35;;;;;;;0.70;0.13;;;26.30;9.70;;;;;;4982488;28;20528;-66
2023/08/13 14:00:05;;;;;;;0.70;0.20;;;26.30;13.70;;;;;;4990275;28;20551;-66
2023/08/13 14:02:33;;;;;;;0.70;0.20;;;26.30;10.80;;;;;;4990893;28;20575;-67
2023/08/13 14:05:02;;;;;;;0.70;0.20;;;26.10;10.60;;;;;;4987434;28;21008;-66
2023/08/13 14:07:31;;;;;;;0.70;0.10;;;;;;;;;;4986521;28;20504;-65
2023/08/13 14:10:02;;;;;;;0.70;0.20;;;25.90;13.80;;;;;;4990528;28;20456;-66
2023/08/13 14:12:30;;;;;;;0.70;0.10;;;26.00;12.50;;;;;;4992818;28;20481;-66
2023/08/13 14:14:58;;;;;;;1.27;0.77;;;;;;;;;;4991013;28;20536;-67
2023/08/13 14:17:26;;;;;;;0.70;0.20;;;25.90;11.20;;;;;;4987093;28;20568;-66
2023/08/13 14:19:54;;;;;;;0.83;0.20;;;;;;;;;;4989130;28;20445;-67
2023/08/13 14:22:23;;;;;;;0.70;0.20;;;;;;;;;;4991150;28;20493;-66
2023/08/13 14:24:50;;;;;;;1.37;0.40;;;26.10;7.80;;;;;;4991205;28;20445;-67
2023/08/13 14:27:19;;;;;;;0.70;0.10;;;25.70;6.10;;;;;;4991991;28;20447;-67
2023/08/13 14:29:48;;;;;;;1.67;0.83;;;25.70;7.90;;;;;;4981419;28;20441;-67
2023/08/13 14:32:16;;;;;;;0.70;0.10;;;25.80;8.20;;;;;;4991014;28;20567;-66
2023/08/13 14:34:45;;;;;;;13.83;0.90;;;;;;;;;;4981909;28;20445;-66
2023/08/13 14:37:13;;;;;;;0.70;0.20;;;25.90;5.40;;;;;;4977386;28;20833;-66
2023/08/13 14:39:40;;;;;;;0.70;0.10;;;26.00;9.80;;;;;;4984493;28;20488;-66
2023/08/13 14:42:08;;;;;;;0.70;0.10;;;26.10;9.00;;;;;;4982016;28;20461;-68
2023/08/13 14:44:38;;;;;;;0.70;0.10;;;26.20;8.00;;;;;;4987404;28;20480;-68
2023/08/13 14:47:07;;;;;;;0.70;0.10;;;26.20;9.50;;;;;;4979332;28;20484;-67
2023/08/13 14:49:34;;;;;;;0.70;0.10;;;26.30;9.20;;;;;;4981621;28;20454;-68
2023/08/13 14:54:45;;;;;;;0.70;0.20;;;26.40;9.90;;;;;;4977345;23;20532;-70
2023/08/13 14:57:13;;;;;;;1.60;1.47;;;26.30;4.10;;;;;;4972617;28;20457;-69
2023/08/13 14:59:42;;;;;;;0.70;0.10;;;26.30;7.50;;;;;;4963395;28;20465;-68
2023/08/13 15:02:10;;;;;;;0.70;0.10;;;26.50;7.70;;;;;;4969791;28;20641;-70
2023/08/13 15:04:39;;;;;;;1.03;0.50;;;26.50;11.50;;;;;;4983502;28;20549;-70
2023/08/13 15:07:07;;;;;;;0.87;0.67;;;26.50;15.30;;;;;;4988866;28;20480;-69
2023/08/13 15:09:35;;;;;;;0.70;0.10;;;26.50;17.50;;;;;;4987633;28;20937;-69
2023/08/13 15:12:03;;;;;;;1.00;0.30;;;26.70;8.40;;;;;;4983655;28;20470;-70
2023/08/13 15:14:31;;;;;;;0.70;0.20;;;26.70;17.00;;;;;;4987072;28;20895;-69
2023/08/13 15:17:00;;;;;;;0.70;0.10;;;26.80;4.30;;;;;;4972781;28;20532;-69
2023/08/13 15:19:28;;;;;;;0.70;0.10;;;26.80;12.90;;;;;;4983967;28;20540;-69
2023/08/13 15:21:55;;;;;;;0.70;0.10;;;27.00;13.60;;;;;;4977479;28;20557;-69
2023/08/13 15:24:23;;;;;;;0.70;0.10;;;27.00;19.40;;;;;;4992576;28;20476;-69
2023/08/13 15:26:52;;;;;;;0.80;0.43;;;27.10;21.50;;;;;;4991942;28;21050;-68
2023/08/13 15:29:20;;;;;;;0.70;0.10;;;27.30;11.70;;;;;;4987547;28;20559;-70
2023/08/13 15:31:48;;;;;;;0.70;0.10;;;29.70;13.70;;;;;;4983575;28;20477;-70
2023/08/13 15:34:17;;;;;;;0.80;0.50;;;27.40;20.20;;;;;;4980860;28;20547;-68
2023/08/13 15:36:45;;;;;;;0.70;0.10;;;27.50;21.10;;;;;;4982287;28;21014;-68
2023/08/13 15:39:14;;;;;;;0.70;0.20;;;;;;;;;;4979551;28;20472;-68
2023/08/13 15:41:42;;;;;;;0.70;0.20;;;27.70;15.30;;;;;;4988465;28;20933;-69
2023/08/13 15:44:10;;;;;;;0.70;0.20;;;27.70;23.90;;;;;;4985406;28;20512;-69
2023/08/13 15:46:38;;;;;;;0.70;0.10;;;28.00;15.80;;;;;;4985565;28;20461;-69
2023/08/13 15:49:06;;;;;;;0.70;0.20;;;28.00;24.60;;;;;;4972531;28;20510;-69
2023/08/13 15:51:35;;;;;;;0.70;0.13;;;;;;;;;;4982492;28;20468;-69
2023/08/13 15:54:03;;;;;;;0.70;0.10;;;28.30;15.30;;;;;;4972626;28;20478;-69
2023/08/13 15:56:31;;;;;;;0.70;0.10;;;28.50;11.20;;;;;;4972486;28;20533;-69
2023/08/13 15:58:59;;;;;;;0.70;0.10;;;28.60;7.90;;;;;;4986365;28;20538;-69
2023/08/13 16:01:27;;;;;;;0.70;0.10;;;28.80;13.60;;;;;;4975814;28;20479;-68
2023/08/13 16:03:54;;;;;;;0.70;0.10;;;28.80;13.30;;;;;;4990048;28;20487;-69
2023/08/13 16:06:22;;;;;;;0.70;0.17;;;29.10;25.50;;;;;;4985090;28;20481;-68
2023/08/13 16:08:51;;;;;;;0.70;0.13;;;29.30;22.70;;;;;;4992161;28;20549;-69
2023/08/13 16:11:20;;;;;;;0.70;0.20;;;29.40;18.10;;;;;;4989256;28;20458;-68
2023/08/13 16:13:48;;;;;;;0.70;0.23;;;29.70;8.80;;;;;;4986572;28;20907;-67
2023/08/13 16:16:16;;;;;;;1.63;1.07;;;29.80;10.60;;;;;;4990515;28;20517;-69
2023/08/13 16:18:44;;;;;;;0.70;0.17;;;29.80;15.20;;;;;;4986295;28;20504;-69
2023/08/13 16:21:12;;;;;;;0.70;0.30;;;29.90;14.00;;;;;;4982545;28;20883;-69
2023/08/13 16:23:40;;;;;;;0.70;0.10;;;30.20;8.00;;;;;;4988937;28;20590;-68
2023/08/13 16:26:09;;;;;;;0.70;0.20;;;29.90;3.10;;;;;;4980649;28;20559;-67
2023/08/13 16:28:37;;;;;;;0.70;0.10;;;30.00;13.00;;;;;;4981698;28;20568;-69
2023/08/13 16:31:06;;;;;;;0.70;0.10;;;29.60;4.70;;;;;;4977783;28;20931;-68
2023/08/13 16:33:34;;;;;;;0.70;0.20;;;29.60;10.70;;;;;;4972254;28;20464;-69
2023/08/13 16:36:02;;;;;;;0.70;0.20;;;29.70;10.80;;;;;;4980201;28;20463;-69
2023/08/13 16:38:30;;;;;;;0.70;0.10;;;29.70;8.60;;;;;;4982099;28;20530;-69
2023/08/13 16:40:58;;;;;;;0.70;0.10;;;29.70;10.30;;;;;;4979524;28;20450;-69
2023/08/13 16:43:27;;;;;;;0.70;0.10;;;29.80;12.40;;;;;;4983620;28;20572;-68
2023/08/13 16:45:55;;;;;;;0.70;0.10;;;29.90;8.10;;;;;;4984755;28;20928;-68
2023/08/13 16:48:23;;;;;;;0.70;0.13;;;30.20;13.30;;;;;;4979534;28;20535;-69
2023/08/13 16:50:51;;;;;;;0.70;0.10;;;30.20;21.90;;;;;;4976976;28;20508;-69
2023/08/13 16:53:19;;;;;;;0.70;0.10;;;30.60;6.70;;;;;;4987342;28;20499;-68
2023/08/13 16:55:47;;;;;;;0.70;0.20;;;30.70;6.20;;;;;;4988224;28;20485;-68
2023/08/13 16:58:15;;;;;;;0.70;0.23;;;30.80;4.70;;;;;;4992913;28;20445;-69
2023/08/13 17:00:44;;;;;;;0.70;0.20;;;30.90;1.00;;;;;;4996385;28;20542;-69
2023/08/13 17:03:11;;;;;;;0.70;0.20;;;30.70;1.00;;;;;;4994884;28;20506;-69
2023/08/13 17:05:39;;;;;;;0.70;0.20;;;30.70;10.50;;;;;;4991182;28;20488;-67
2023/08/13 17:08:07;;;;;;;0.70;0.20;;;30.60;2.60;;;;;;4987616;28;20445;-69
2023/08/13 17:10:35;;;;;;;0.70;0.10;;;30.40;1.00;;;;;;4995189;28;20897;-67
2023/08/13 17:13:03;;;;;;;0.70;0.10;;;30.00;1.00;;;;;;4992007;28;20484;-69
2023/08/13 17:15:31;;;;;;;0.70;0.10;;;29.70;1.00;;;;;;4986687;28;20488;-68
2023/08/13 17:18:00;;;;;;;0.70;0.20;;;29.70;7.80;;;;;;4995700;28;20455;-69
2023/08/13 17:20:28;;;;;;;0.70;0.10;;;29.40;1.00;;;;;;4990068;28;20550;-66